createdAt,value
2018-05-27T00:00:04.158Z,5.03
2018-05-27T00:04:57.451Z,6.00
2018-05-27T00:09:50.789Z,5.57
2018-05-27T00:14:44.077Z,5.97
2018-05-27T00:19:37.349Z,6.33
2018-05-27T00:24:30.651Z,5.10
2018-05-27T00:29:23.940Z,5.70
2018-05-27T00:34:17.223Z,5.50
2018-05-27T00:39:10.512Z,6.00
2018-05-27T00:44:04.580Z,6.50
2018-05-27T00:48:57.862Z,7.00
2018-05-27T00:53:59.849Z,6.33
2018-05-27T00:58:53.140Z,5.87
2018-05-27T01:03:46.433Z,5.10
2018-05-27T01:08:40.478Z,5.70
2018-05-27T01:13:33.772Z,6.17
2018-05-27T01:18:27.138Z,5.77
2018-05-27T01:23:20.469Z,5.10
2018-05-27T01:28:13.765Z,5.33
2018-05-27T01:33:07.189Z,5.50
2018-05-27T01:38:00.457Z,5.70
2018-05-27T01:42:53.741Z,6.03
2018-05-27T01:47:47.025Z,5.60
2018-05-27T01:52:40.366Z,6.20
2018-05-27T01:57:34.395Z,6.30
2018-05-27T02:02:27.690Z,6.53
2018-05-27T02:07:21.724Z,6.37
2018-05-27T02:12:15.014Z,6.87
2018-05-27T02:17:08.303Z,5.93
2018-05-27T02:22:01.608Z,6.70
2018-05-27T02:26:54.930Z,6.87
2018-05-27T02:31:48.229Z,6.60
2018-05-27T02:36:41.529Z,6.33
2018-05-27T02:41:34.841Z,5.57
2018-05-27T02:46:28.869Z,6.17
2018-05-27T02:51:22.160Z,6.50
2018-05-27T02:56:15.478Z,6.00
2018-05-27T03:01:09.559Z,6.17
2018-05-27T03:06:02.849Z,6.97
2018-05-27T03:10:56.135Z,7.20
2018-05-27T03:15:50.189Z,7.27
2018-05-27T03:20:43.495Z,6.43
2018-05-27T03:25:36.768Z,6.80
2018-05-27T03:30:30.069Z,5.77
2018-05-27T03:35:24.132Z,10.13
2018-05-27T03:40:17.413Z,7.20
2018-05-27T03:45:10.690Z,7.50
2018-05-27T03:50:03.973Z,7.70
2018-05-27T03:54:57.253Z,6.50
2018-05-27T03:59:50.542Z,7.03
2018-05-27T04:05:02.967Z,7.40
2018-05-27T04:09:57.013Z,6.03
2018-05-27T04:14:50.317Z,6.00
2018-05-27T04:19:43.614Z,6.20
2018-05-27T04:24:37.681Z,5.27
2018-05-27T04:29:30.957Z,5.97
2018-05-27T04:34:24.259Z,5.60
2018-05-27T04:39:17.561Z,5.43
2018-05-27T04:44:10.854Z,6.00
2018-05-27T04:49:04.142Z,6.17
2018-05-27T04:53:57.437Z,6.10
2018-05-27T04:58:50.733Z,6.00
2018-05-27T05:03:44.024Z,6.23
2018-05-27T05:08:38.066Z,6.60
2018-05-27T05:13:31.357Z,6.70
2018-05-27T05:18:24.650Z,7.13
2018-05-27T05:23:17.952Z,6.60
2018-05-27T05:28:11.237Z,7.47
2018-05-27T05:33:05.298Z,6.60
2018-05-27T05:37:58.580Z,7.20
2018-05-27T05:42:51.870Z,6.57
2018-05-27T05:47:45.145Z,5.30
2018-05-27T05:52:38.477Z,5.70
2018-05-27T05:57:31.770Z,5.43
2018-05-27T06:02:25.053Z,5.90
2018-05-27T06:07:18.335Z,4.80
2018-05-27T06:12:11.625Z,6.00
2018-05-27T06:17:04.897Z,5.77
2018-05-27T06:21:58.181Z,5.53
2018-05-27T06:26:51.474Z,5.18
2018-05-27T06:31:44.757Z,5.20
2018-05-27T06:36:38.817Z,5.20
2018-05-27T06:41:32.101Z,5.20
2018-05-27T06:46:25.372Z,5.40
2018-05-27T06:51:18.712Z,5.40
2018-05-27T06:56:11.950Z,4.73
2018-05-27T07:01:05.264Z,4.93
2018-05-27T07:05:58.549Z,5.93
2018-05-27T07:10:51.864Z,6.37
2018-05-27T07:15:45.165Z,6.50
2018-05-27T07:20:39.238Z,7.35
2018-05-27T07:25:32.526Z,7.57
2018-05-27T07:30:25.813Z,8.25
2018-05-27T07:35:19.101Z,7.30
2018-05-27T07:40:12.389Z,7.10
2018-05-27T07:45:05.701Z,6.28
2018-05-27T07:49:59.000Z,6.60
2018-05-27T07:54:52.294Z,7.60
2018-05-27T07:59:45.578Z,7.22
2018-05-27T08:04:38.909Z,6.03
2018-05-27T08:09:32.208Z,6.18
2018-05-27T08:14:25.511Z,7.30
2018-05-27T08:19:18.798Z,8.90
2018-05-27T08:24:12.860Z,8.43
2018-05-27T08:29:06.148Z,8.45
2018-05-27T08:33:59.435Z,7.57
2018-05-27T08:38:52.793Z,8.20
2018-05-27T08:43:46.088Z,7.40
2018-05-27T08:48:39.369Z,7.00
2018-05-27T08:53:32.657Z,6.68
2018-05-27T08:58:26.030Z,7.93
2018-05-27T09:03:19.317Z,7.15
2018-05-27T09:08:13.375Z,6.55
2018-05-27T09:13:06.663Z,6.65
2018-05-27T09:17:59.973Z,6.47
2018-05-27T09:22:54.027Z,6.60
2018-05-27T09:27:47.310Z,5.80
2018-05-27T09:32:41.361Z,5.90
2018-05-27T09:37:34.655Z,5.22
2018-05-27T09:42:27.953Z,5.43
2018-05-27T09:47:21.240Z,5.78
2018-05-27T09:52:14.534Z,5.55
2018-05-27T09:57:07.825Z,5.55
2018-05-27T10:02:01.887Z,5.93
2018-05-27T10:06:55.169Z,5.55
2018-05-27T10:11:48.495Z,5.72
2018-05-27T10:16:41.755Z,5.18
2018-05-27T10:21:35.822Z,5.50
2018-05-27T10:26:29.124Z,5.78
2018-05-27T10:31:23.184Z,5.00
2018-05-27T10:36:16.492Z,5.65
2018-05-27T10:41:10.552Z,4.82
2018-05-27T10:46:03.829Z,4.90
2018-05-27T10:50:57.121Z,4.53
2018-05-27T10:55:50.462Z,4.50
2018-05-27T11:00:43.749Z,4.03
2018-05-27T11:05:37.087Z,4.40
2018-05-27T11:10:30.341Z,4.47
2018-05-27T11:15:23.641Z,4.28
2018-05-27T11:20:17.705Z,3.65
2018-05-27T11:25:10.996Z,4.30
2018-05-27T11:30:04.293Z,4.47
2018-05-27T11:34:58.342Z,4.05
2018-05-27T11:39:51.626Z,3.95
2018-05-27T11:44:44.921Z,4.05
2018-05-27T11:49:38.195Z,3.60
2018-05-27T11:54:31.482Z,3.85
2018-05-27T11:59:24.793Z,3.80
2018-05-27T12:04:18.087Z,3.97
2018-05-27T12:09:11.519Z,3.97
2018-05-27T12:14:04.679Z,3.75
2018-05-27T12:18:57.989Z,4.03
2018-05-27T12:23:52.083Z,4.07
2018-05-27T12:28:46.136Z,3.78
2018-05-27T12:33:39.498Z,3.78
2018-05-27T12:38:32.801Z,4.35
2018-05-27T12:43:26.137Z,4.53
2018-05-27T12:48:19.432Z,4.25
2018-05-27T12:53:12.771Z,3.78
2018-05-27T12:58:06.824Z,3.62
2018-05-27T13:03:00.109Z,4.12
2018-05-27T13:07:53.409Z,4.20
2018-05-27T13:12:47.475Z,4.07
2018-05-27T13:17:40.793Z,3.33
2018-05-27T13:22:34.878Z,3.50
2018-05-27T13:27:28.999Z,3.70
2018-05-27T13:32:22.305Z,3.87
2018-05-27T13:37:15.597Z,3.72
2018-05-27T13:42:08.911Z,4.20
2018-05-27T13:47:03.807Z,3.35
2018-05-27T13:51:57.134Z,3.45
2018-05-27T13:56:50.427Z,3.50
2018-05-27T14:01:43.713Z,3.67
2018-05-27T14:06:37.022Z,3.37
2018-05-27T14:11:30.347Z,3.40
2018-05-27T14:16:23.636Z,3.87
2018-05-27T14:21:16.944Z,3.72
2018-05-27T14:26:10.238Z,4.05
2018-05-27T14:31:03.574Z,4.25
2018-05-27T14:35:56.868Z,4.20
2018-05-27T14:40:50.178Z,3.85
2018-05-27T14:45:43.461Z,4.20
2018-05-27T14:50:37.536Z,4.28
2018-05-27T14:55:30.821Z,4.20
2018-05-27T15:00:24.121Z,4.32
2018-05-27T15:05:17.456Z,4.07
2018-05-27T15:10:10.745Z,4.47
2018-05-27T15:15:04.050Z,4.32
2018-05-27T15:19:57.364Z,4.30
2018-05-27T15:24:50.659Z,3.50
2018-05-27T15:29:43.935Z,3.65
2018-05-27T15:34:37.225Z,3.70
2018-05-27T15:39:30.517Z,3.50
2018-05-27T15:44:23.826Z,3.00
2018-05-27T15:49:17.122Z,3.70
2018-05-27T15:54:10.429Z,3.40
2018-05-27T15:59:03.706Z,3.42
2018-05-27T16:03:57.022Z,3.40
2018-05-27T16:08:51.106Z,3.40
2018-05-27T16:13:44.418Z,3.40
2018-05-27T16:18:37.703Z,3.58
2018-05-27T16:23:31.012Z,3.50
2018-05-27T16:28:24.303Z,3.20
2018-05-27T16:33:17.611Z,3.40
2018-05-27T16:38:11.645Z,3.20
2018-05-27T16:43:04.932Z,3.40
2018-05-27T16:47:58.226Z,3.40
2018-05-27T16:52:51.521Z,3.15
2018-05-27T16:57:44.792Z,3.45
2018-05-27T17:02:38.092Z,3.58
2018-05-27T17:07:32.144Z,3.60
2018-05-27T17:12:25.478Z,3.17
2018-05-27T17:17:18.736Z,3.03
2018-05-27T17:22:12.802Z,3.10
2018-05-27T17:27:06.100Z,3.72
2018-05-27T17:32:00.194Z,3.42
2018-05-27T17:36:53.509Z,3.72
2018-05-27T17:41:46.834Z,3.85
2018-05-27T17:46:40.150Z,3.67
2018-05-27T17:51:34.286Z,3.90
2018-05-27T17:56:29.079Z,3.60
2018-05-27T18:01:22.370Z,3.58
2018-05-27T18:06:15.671Z,3.53
2018-05-27T18:11:08.961Z,3.80
2018-05-27T18:16:02.318Z,3.40
2018-05-27T18:20:55.622Z,3.78
2018-05-27T18:25:48.907Z,4.25
2018-05-27T18:30:42.207Z,3.53
2018-05-27T18:35:36.267Z,3.80
2018-05-27T18:40:29.557Z,3.80
2018-05-27T18:45:23.622Z,3.85
2018-05-27T18:50:16.928Z,3.80
2018-05-27T18:55:10.236Z,3.78
2018-05-27T19:00:03.557Z,3.72
2018-05-27T19:04:56.844Z,3.90
2018-05-27T19:09:50.164Z,3.83
2018-05-27T19:14:44.214Z,3.53
2018-05-27T19:19:37.510Z,3.85
2018-05-27T19:24:30.814Z,4.07
2018-05-27T19:29:24.873Z,3.95
2018-05-27T19:34:18.173Z,3.90
2018-05-27T19:39:12.229Z,3.83
2018-05-27T19:44:05.577Z,4.32
2018-05-27T19:48:58.869Z,4.20
2018-05-27T19:53:52.166Z,3.65
2018-05-27T19:58:45.468Z,3.78
2018-05-27T20:03:38.764Z,4.28
2018-05-27T20:08:32.800Z,4.50
2018-05-27T20:13:26.089Z,3.85
2018-05-27T20:18:19.393Z,3.60
2018-05-27T20:23:12.689Z,3.65
2018-05-27T20:28:06.026Z,3.67
2018-05-27T20:32:59.324Z,3.80
2018-05-27T20:37:52.618Z,4.50
2018-05-27T20:42:46.674Z,4.15
2018-05-27T20:47:39.944Z,3.80
2018-05-27T20:52:33.236Z,4.40
2018-05-27T20:57:26.524Z,3.58
2018-05-27T21:02:19.819Z,4.00
2018-05-27T21:07:13.088Z,3.87
2018-05-27T21:12:06.366Z,3.78
2018-05-27T21:16:59.645Z,4.00
2018-05-27T21:21:52.953Z,3.83
2018-05-27T21:26:46.253Z,4.43
2018-05-27T21:31:39.541Z,4.20
2018-05-27T21:36:32.855Z,3.87
2018-05-27T21:41:26.124Z,5.00
2018-05-27T21:46:19.433Z,4.20
2018-05-27T21:51:13.489Z,4.95
2018-05-27T21:56:06.789Z,4.70
2018-05-27T22:01:00.841Z,6.20
2018-05-27T22:05:54.137Z,7.53
2018-05-27T22:10:47.441Z,7.47
2018-05-27T22:15:40.753Z,6.83
2018-05-27T22:20:34.025Z,5.70
2018-05-27T22:25:28.336Z,5.83
2018-05-27T22:30:21.639Z,5.97
2018-05-27T22:35:14.915Z,5.70
2018-05-27T22:40:08.213Z,6.73
2018-05-27T22:45:01.510Z,7.27
2018-05-27T22:49:55.575Z,6.03
2018-05-27T22:54:48.864Z,7.03
2018-05-27T22:59:42.157Z,6.50
2018-05-27T23:04:36.221Z,5.80
2018-05-27T23:09:29.528Z,5.50
2018-05-27T23:14:22.813Z,5.53
2018-05-27T23:19:16.917Z,5.37
2018-05-27T23:24:10.224Z,4.43
2018-05-27T23:29:03.511Z,5.13
2018-05-27T23:33:56.821Z,5.73
2018-05-27T23:38:50.120Z,5.47
2018-05-27T23:43:44.176Z,5.47
2018-05-27T23:48:37.463Z,5.10
2018-05-27T23:53:30.756Z,5.30
2018-05-27T23:58:24.069Z,5.03
